Heyuan, China
Current Conditions -  °F | °C
As of 7:00 AM on Saturday 01 Nov 2014 (Local Time) from ZGGG Reporting Station
Haze Haze  
Wind Chill: 75°   Ceiling: Unl
Heat Index: 75°   Visibility: 2mi
Dew Point: 70°   Wind: 2mph
Humidity: 83%   Direction: 90°E
Pressure: 29.91"   Gusts: NA
Location:  23.73°N, 114.68°E
Report Text: ZGGG 312300Z 09001MPS 3200 BR NSC 24/21 Q1013 NOSIG
Loading
Personal Weather Stations






























Interactive Weather Map
Tropical Storm Tracking
New forecast layout! Learn more

10-Day Weather Forecast

Advertisements
Track Severe Weather on mobile